sensor_id;sensor_type;location;lat;lon;timestamp;P1;durP1;ratioP1;P2;durP2;ratioP2
71091;SDS011;58751;50.708;7.134;2023-09-30T00:01:30;7.40;;;3.97;;
71091;SDS011;58751;50.708;7.134;2023-09-30T00:03:56;6.43;;;4.57;;
71091;SDS011;58751;50.708;7.134;2023-09-30T00:06:23;9.53;;;4.20;;
71091;SDS011;58751;50.708;7.134;2023-09-30T00:08:48;5.70;;;3.53;;
71091;SDS011;58751;50.708;7.134;2023-09-30T00:11:14;5.83;;;4.00;;
71091;SDS011;58751;50.708;7.134;2023-09-30T00:13:40;6.57;;;4.95;;
71091;SDS011;58751;50.708;7.134;2023-09-30T00:16:05;8.23;;;4.93;;
71091;SDS011;58751;50.708;7.134;2023-09-30T00:18:31;7.73;;;4.60;;
71091;SDS011;58751;50.708;7.134;2023-09-30T00:20:56;6.40;;;4.63;;
71091;SDS011;58751;50.708;7.134;2023-09-30T00:23:23;5.90;;;4.30;;
71091;SDS011;58751;50.708;7.134;2023-09-30T00:25:48;8.25;;;4.93;;
71091;SDS011;58751;50.708;7.134;2023-09-30T00:28:14;11.00;;;4.97;;
71091;SDS011;58751;50.708;7.134;2023-09-30T00:30:39;8.47;;;6.27;;
71091;SDS011;58751;50.708;7.134;2023-09-30T00:33:04;8.60;;;4.80;;
71091;SDS011;58751;50.708;7.134;2023-09-30T00:35:31;11.87;;;4.73;;
71091;SDS011;58751;50.708;7.134;2023-09-30T00:37:57;8.73;;;4.97;;
71091;SDS011;58751;50.708;7.134;2023-09-30T00:40:23;7.00;;;3.97;;
71091;SDS011;58751;50.708;7.134;2023-09-30T00:42:49;7.88;;;4.05;;
71091;SDS011;58751;50.708;7.134;2023-09-30T00:45:14;7.00;;;4.87;;
71091;SDS011;58751;50.708;7.134;2023-09-30T00:47:40;9.27;;;4.60;;
71091;SDS011;58751;50.708;7.134;2023-09-30T00:50:05;8.30;;;4.67;;
71091;SDS011;58751;50.708;7.134;2023-09-30T00:52:31;8.68;;;4.80;;
71091;SDS011;58751;50.708;7.134;2023-09-30T00:54:57;7.60;;;4.73;;
71091;SDS011;58751;50.708;7.134;2023-09-30T00:57:24;7.70;;;5.30;;
71091;SDS011;58751;50.708;7.134;2023-09-30T00:59:50;6.90;;;4.32;;
71091;SDS011;58751;50.708;7.134;2023-09-30T01:02:16;11.05;;;5.22;;
71091;SDS011;58751;50.708;7.134;2023-09-30T01:04:42;7.28;;;5.00;;
71091;SDS011;58751;50.708;7.134;2023-09-30T01:07:08;10.80;;;4.80;;
71091;SDS011;58751;50.708;7.134;2023-09-30T01:09:33;6.13;;;4.37;;
71091;SDS011;58751;50.708;7.134;2023-09-30T01:11:59;6.37;;;4.37;;
71091;SDS011;58751;50.708;7.134;2023-09-30T01:14:27;8.87;;;5.07;;
71091;SDS011;58751;50.708;7.134;2023-09-30T01:16:53;6.50;;;4.95;;
71091;SDS011;58751;50.708;7.134;2023-09-30T01:19:18;12.13;;;4.67;;
71091;SDS011;58751;50.708;7.134;2023-09-30T01:21:45;7.57;;;4.50;;
71091;SDS011;58751;50.708;7.134;2023-09-30T01:24:10;8.95;;;4.75;;
71091;SDS011;58751;50.708;7.134;2023-09-30T01:26:36;10.97;;;4.57;;
71091;SDS011;58751;50.708;7.134;2023-09-30T01:29:01;7.13;;;4.37;;
71091;SDS011;58751;50.708;7.134;2023-09-30T01:31:27;6.53;;;5.10;;
71091;SDS011;58751;50.708;7.134;2023-09-30T01:33:52;11.40;;;5.77;;
71091;SDS011;58751;50.708;7.134;2023-09-30T01:36:17;7.43;;;5.00;;
71091;SDS011;58751;50.708;7.134;2023-09-30T01:38:44;12.93;;;5.60;;
71091;SDS011;58751;50.708;7.134;2023-09-30T01:41:10;6.80;;;4.40;;
71091;SDS011;58751;50.708;7.134;2023-09-30T01:43:35;9.60;;;4.77;;
71091;SDS011;58751;50.708;7.134;2023-09-30T01:46:00;8.80;;;5.87;;
71091;SDS011;58751;50.708;7.134;2023-09-30T01:48:26;9.37;;;5.67;;
71091;SDS011;58751;50.708;7.134;2023-09-30T01:50:51;4.77;;;4.20;;
71091;SDS011;58751;50.708;7.134;2023-09-30T01:53:17;6.80;;;4.40;;
71091;SDS011;58751;50.708;7.134;2023-09-30T01:55:43;7.57;;;4.77;;
71091;SDS011;58751;50.708;7.134;2023-09-30T01:58:09;8.15;;;4.43;;
71091;SDS011;58751;50.708;7.134;2023-09-30T02:00:34;8.83;;;4.70;;
71091;SDS011;58751;50.708;7.134;2023-09-30T02:02:59;5.80;;;4.70;;
71091;SDS011;58751;50.708;7.134;2023-09-30T02:05:25;9.60;;;4.50;;
71091;SDS011;58751;50.708;7.134;2023-09-30T02:07:50;6.37;;;4.27;;
71091;SDS011;58751;50.708;7.134;2023-09-30T02:10:16;8.30;;;5.07;;
71091;SDS011;58751;50.708;7.134;2023-09-30T02:12:43;6.43;;;4.30;;
71091;SDS011;58751;50.708;7.134;2023-09-30T02:15:09;7.05;;;5.15;;
71091;SDS011;58751;50.708;7.134;2023-09-30T02:17:35;7.03;;;4.70;;
71091;SDS011;58751;50.708;7.134;2023-09-30T02:20:00;7.57;;;4.83;;
71091;SDS011;58751;50.708;7.134;2023-09-30T02:22:26;8.60;;;4.93;;
71091;SDS011;58751;50.708;7.134;2023-09-30T02:24:51;7.63;;;4.63;;
71091;SDS011;58751;50.708;7.134;2023-09-30T02:27:17;9.90;;;4.77;;
71091;SDS011;58751;50.708;7.134;2023-09-30T02:29:43;8.80;;;5.63;;
71091;SDS011;58751;50.708;7.134;2023-09-30T02:32:09;6.72;;;5.28;;
71091;SDS011;58751;50.708;7.134;2023-09-30T02:34:34;8.40;;;6.20;;
71091;SDS011;58751;50.708;7.134;2023-09-30T02:36:59;8.50;;;6.50;;
71091;SDS011;58751;50.708;7.134;2023-09-30T02:39:25;5.67;;;5.10;;
71091;SDS011;58751;50.708;7.134;2023-09-30T02:41:50;7.10;;;5.23;;
71091;SDS011;58751;50.708;7.134;2023-09-30T02:44:16;7.60;;;6.30;;
71091;SDS011;58751;50.708;7.134;2023-09-30T02:46:42;5.93;;;5.10;;
71091;SDS011;58751;50.708;7.134;2023-09-30T02:49:08;6.30;;;4.70;;
71091;SDS011;58751;50.708;7.134;2023-09-30T02:51:33;8.30;;;5.40;;
71091;SDS011;58751;50.708;7.134;2023-09-30T02:53:59;8.00;;;4.63;;
71091;SDS011;58751;50.708;7.134;2023-09-30T02:56:24;12.13;;;5.33;;
71091;SDS011;58751;50.708;7.134;2023-09-30T02:58:50;6.37;;;4.70;;
71091;SDS011;58751;50.708;7.134;2023-09-30T03:01:15;7.37;;;4.87;;
71091;SDS011;58751;50.708;7.134;2023-09-30T03:03:42;7.40;;;5.70;;
71091;SDS011;58751;50.708;7.134;2023-09-30T03:06:07;10.90;;;5.15;;
71091;SDS011;58751;50.708;7.134;2023-09-30T03:08:33;6.23;;;5.60;;
71091;SDS011;58751;50.708;7.134;2023-09-30T03:10:58;11.33;;;5.50;;
71091;SDS011;58751;50.708;7.134;2023-09-30T03:13:23;7.57;;;5.73;;
71091;SDS011;58751;50.708;7.134;2023-09-30T03:15:49;11.93;;;4.40;;
71091;SDS011;58751;50.708;7.134;2023-09-30T03:18:14;8.07;;;4.77;;
71091;SDS011;58751;50.708;7.134;2023-09-30T03:20:41;8.20;;;5.10;;
71091;SDS011;58751;50.708;7.134;2023-09-30T03:23:06;7.07;;;4.95;;
71091;SDS011;58751;50.708;7.134;2023-09-30T03:25:32;6.40;;;5.70;;
71091;SDS011;58751;50.708;7.134;2023-09-30T03:27:57;11.37;;;7.80;;
71091;SDS011;58751;50.708;7.134;2023-09-30T03:30:23;13.53;;;9.07;;
71091;SDS011;58751;50.708;7.134;2023-09-30T03:32:48;8.80;;;6.00;;
71091;SDS011;58751;50.708;7.134;2023-09-30T03:35:14;10.53;;;6.03;;
71091;SDS011;58751;50.708;7.134;2023-09-30T03:37:40;7.97;;;6.97;;
71091;SDS011;58751;50.708;7.134;2023-09-30T03:40:06;10.15;;;9.10;;
71091;SDS011;58751;50.708;7.134;2023-09-30T03:42:32;7.40;;;5.70;;
71091;SDS011;58751;50.708;7.134;2023-09-30T03:44:58;8.33;;;6.03;;
71091;SDS011;58751;50.708;7.134;2023-09-30T03:47:23;7.63;;;6.10;;
71091;SDS011;58751;50.708;7.134;2023-09-30T03:49:48;9.80;;;6.87;;
71091;SDS011;58751;50.708;7.134;2023-09-30T03:52:14;10.10;;;5.97;;
71091;SDS011;58751;50.708;7.134;2023-09-30T03:54:40;9.93;;;6.07;;
71091;SDS011;58751;50.708;7.134;2023-09-30T03:57:06;11.32;;;6.72;;
71091;SDS011;58751;50.708;7.134;2023-09-30T03:59:31;11.23;;;5.70;;
71091;SDS011;58751;50.708;7.134;2023-09-30T04:01:57;7.23;;;6.53;;
71091;SDS011;58751;50.708;7.134;2023-09-30T04:04:22;18.97;;;6.97;;
71091;SDS011;58751;50.708;7.134;2023-09-30T04:06:49;8.07;;;5.43;;
71091;SDS011;58751;50.708;7.134;2023-09-30T04:09:15;10.57;;;6.78;;
71091;SDS011;58751;50.708;7.134;2023-09-30T04:11:42;7.90;;;5.63;;
71091;SDS011;58751;50.708;7.134;2023-09-30T04:14:07;7.95;;;5.95;;
71091;SDS011;58751;50.708;7.134;2023-09-30T04:16:33;10.03;;;6.77;;
71091;SDS011;58751;50.708;7.134;2023-09-30T04:18:59;8.47;;;6.33;;
71091;SDS011;58751;50.708;7.134;2023-09-30T04:21:24;8.70;;;6.57;;
71091;SDS011;58751;50.708;7.134;2023-09-30T04:23:50;7.73;;;6.90;;
71091;SDS011;58751;50.708;7.134;2023-09-30T04:26:15;10.63;;;6.23;;
71091;SDS011;58751;50.708;7.134;2023-09-30T04:28:42;10.23;;;6.03;;
71091;SDS011;58751;50.708;7.134;2023-09-30T04:31:07;7.75;;;5.88;;
71091;SDS011;58751;50.708;7.134;2023-09-30T04:33:33;8.67;;;6.30;;
71091;SDS011;58751;50.708;7.134;2023-09-30T04:35:58;12.50;;;6.53;;
71091;SDS011;58751;50.708;7.134;2023-09-30T04:38:24;7.20;;;5.13;;
71091;SDS011;58751;50.708;7.134;2023-09-30T04:40:49;9.53;;;5.90;;
71091;SDS011;58751;50.708;7.134;2023-09-30T04:43:14;11.77;;;5.67;;
71091;SDS011;58751;50.708;7.134;2023-09-30T04:45:41;10.07;;;6.47;;
71091;SDS011;58751;50.708;7.134;2023-09-30T04:48:06;12.93;;;6.70;;
71091;SDS011;58751;50.708;7.134;2023-09-30T04:50:32;12.70;;;5.97;;
71091;SDS011;58751;50.708;7.134;2023-09-30T04:52:57;9.47;;;7.10;;
71091;SDS011;58751;50.708;7.134;2023-09-30T04:55:23;10.10;;;7.10;;
71091;SDS011;58751;50.708;7.134;2023-09-30T04:57:48;11.30;;;6.60;;
71091;SDS011;58751;50.708;7.134;2023-09-30T05:00:15;11.07;;;7.70;;
71091;SDS011;58751;50.708;7.134;2023-09-30T05:02:43;10.82;;;8.30;;
71091;SDS011;58751;50.708;7.134;2023-09-30T05:05:08;11.57;;;7.63;;
71091;SDS011;58751;50.708;7.134;2023-09-30T05:07:34;14.57;;;8.40;;
71091;SDS011;58751;50.708;7.134;2023-09-30T05:09:59;13.00;;;7.80;;
71091;SDS011;58751;50.708;7.134;2023-09-30T05:12:24;13.83;;;8.27;;
71091;SDS011;58751;50.708;7.134;2023-09-30T05:14:50;12.50;;;8.03;;
71091;SDS011;58751;50.708;7.134;2023-09-30T05:17:15;9.50;;;7.57;;
71091;SDS011;58751;50.708;7.134;2023-09-30T05:19:42;11.93;;;8.23;;
71091;SDS011;58751;50.708;7.134;2023-09-30T05:22:07;11.52;;;7.85;;
71091;SDS011;58751;50.708;7.134;2023-09-30T05:24:33;13.47;;;7.77;;
71091;SDS011;58751;50.708;7.134;2023-09-30T05:26:58;15.73;;;8.27;;
71091;SDS011;58751;50.708;7.134;2023-09-30T05:29:24;17.20;;;8.90;;
71091;SDS011;58751;50.708;7.134;2023-09-30T05:31:49;13.83;;;9.60;;
71091;SDS011;58751;50.708;7.134;2023-09-30T05:34:15;14.27;;;10.10;;
71091;SDS011;58751;50.708;7.134;2023-09-30T05:36:42;14.40;;;10.40;;
71091;SDS011;58751;50.708;7.134;2023-09-30T05:39:08;13.40;;;9.73;;
71091;SDS011;58751;50.708;7.134;2023-09-30T05:41:33;11.30;;;7.03;;
71091;SDS011;58751;50.708;7.134;2023-09-30T05:43:59;9.80;;;8.47;;
71091;SDS011;58751;50.708;7.134;2023-09-30T05:46:24;12.47;;;7.80;;
71091;SDS011;58751;50.708;7.134;2023-09-30T05:48:49;10.33;;;7.40;;
71091;SDS011;58751;50.708;7.134;2023-09-30T05:51:15;10.30;;;6.90;;
71091;SDS011;58751;50.708;7.134;2023-09-30T05:53:42;10.67;;;7.53;;
71091;SDS011;58751;50.708;7.134;2023-09-30T05:56:07;10.23;;;7.47;;
71091;SDS011;58751;50.708;7.134;2023-09-30T05:58:33;11.97;;;7.50;;
71091;SDS011;58751;50.708;7.134;2023-09-30T06:00:58;8.67;;;7.40;;
71091;SDS011;58751;50.708;7.134;2023-09-30T06:03:26;7.57;;;6.32;;
71091;SDS011;58751;50.708;7.134;2023-09-30T06:05:51;9.93;;;6.10;;
71091;SDS011;58751;50.708;7.134;2023-09-30T06:08:17;8.40;;;6.77;;
71091;SDS011;58751;50.708;7.134;2023-09-30T06:10:44;7.90;;;5.80;;
71091;SDS011;58751;50.708;7.134;2023-09-30T06:13:09;9.90;;;5.75;;
71091;SDS011;58751;50.708;7.134;2023-09-30T06:15:36;10.57;;;7.30;;
71091;SDS011;58751;50.708;7.134;2023-09-30T06:18:02;8.57;;;6.95;;
71091;SDS011;58751;50.708;7.134;2023-09-30T06:20:28;34.10;;;9.63;;
71091;SDS011;58751;50.708;7.134;2023-09-30T06:22:53;36.07;;;11.00;;
71091;SDS011;58751;50.708;7.134;2023-09-30T06:25:19;48.53;;;11.87;;
71091;SDS011;58751;50.708;7.134;2023-09-30T06:27:47;36.38;;;10.98;;
71091;SDS011;58751;50.708;7.134;2023-09-30T06:30:13;35.33;;;12.48;;
71091;SDS011;58751;50.708;7.134;2023-09-30T06:32:39;32.10;;;11.15;;
71091;SDS011;58751;50.708;7.134;2023-09-30T06:35:05;45.37;;;11.93;;
71091;SDS011;58751;50.708;7.134;2023-09-30T06:37:31;52.92;;;11.88;;
71091;SDS011;58751;50.708;7.134;2023-09-30T06:39:56;43.77;;;12.43;;
71091;SDS011;58751;50.708;7.134;2023-09-30T06:42:22;43.23;;;12.87;;
71091;SDS011;58751;50.708;7.134;2023-09-30T06:44:49;30.03;;;13.70;;
71091;SDS011;58751;50.708;7.134;2023-09-30T06:47:14;28.83;;;11.40;;
71091;SDS011;58751;50.708;7.134;2023-09-30T06:49:42;38.37;;;13.23;;
71091;SDS011;58751;50.708;7.134;2023-09-30T06:52:08;61.58;;;13.70;;
71091;SDS011;58751;50.708;7.134;2023-09-30T06:54:33;26.73;;;13.07;;
71091;SDS011;58751;50.708;7.134;2023-09-30T06:56:59;29.00;;;11.70;;
71091;SDS011;58751;50.708;7.134;2023-09-30T06:59:24;17.30;;;10.80;;
71091;SDS011;58751;50.708;7.134;2023-09-30T07:01:51;23.23;;;11.90;;
71091;SDS011;58751;50.708;7.134;2023-09-30T07:04:16;23.27;;;11.05;;
71091;SDS011;58751;50.708;7.134;2023-09-30T07:06:42;13.80;;;8.73;;
71091;SDS011;58751;50.708;7.134;2023-09-30T07:09:07;17.93;;;10.50;;
71091;SDS011;58751;50.708;7.134;2023-09-30T07:11:32;15.23;;;10.93;;
71091;SDS011;58751;50.708;7.134;2023-09-30T07:13:58;14.30;;;9.47;;
71091;SDS011;58751;50.708;7.134;2023-09-30T07:16:24;13.00;;;9.30;;
71091;SDS011;58751;50.708;7.134;2023-09-30T07:18:50;11.07;;;8.70;;
71091;SDS011;58751;50.708;7.134;2023-09-30T07:21:16;15.43;;;9.20;;
71091;SDS011;58751;50.708;7.134;2023-09-30T07:23:41;12.00;;;7.77;;
71091;SDS011;58751;50.708;7.134;2023-09-30T07:26:07;7.97;;;6.80;;
71091;SDS011;58751;50.708;7.134;2023-09-30T07:28:32;7.90;;;7.00;;
71091;SDS011;58751;50.708;7.134;2023-09-30T07:30:58;7.17;;;6.47;;
71091;SDS011;58751;50.708;7.134;2023-09-30T07:33:23;7.10;;;6.33;;
71091;SDS011;58751;50.708;7.134;2023-09-30T07:35:50;9.00;;;5.60;;
71091;SDS011;58751;50.708;7.134;2023-09-30T07:38:15;6.97;;;4.45;;
71091;SDS011;58751;50.708;7.134;2023-09-30T07:40:41;6.00;;;5.40;;
71091;SDS011;58751;50.708;7.134;2023-09-30T07:43:06;6.77;;;5.50;;
71091;SDS011;58751;50.708;7.134;2023-09-30T07:45:31;6.30;;;5.33;;
71091;SDS011;58751;50.708;7.134;2023-09-30T07:47:57;8.13;;;5.83;;
71091;SDS011;58751;50.708;7.134;2023-09-30T07:50:22;6.67;;;5.20;;
71091;SDS011;58751;50.708;7.134;2023-09-30T07:52:49;7.40;;;5.40;;
71091;SDS011;58751;50.708;7.134;2023-09-30T07:55:14;5.93;;;5.43;;
71091;SDS011;58751;50.708;7.134;2023-09-30T07:57:41;5.93;;;5.33;;
71091;SDS011;58751;50.708;7.134;2023-09-30T08:00:07;7.73;;;5.50;;
71091;SDS011;58751;50.708;7.134;2023-09-30T08:02:33;7.30;;;5.40;;
71091;SDS011;58751;50.708;7.134;2023-09-30T08:04:58;4.77;;;4.37;;
71091;SDS011;58751;50.708;7.134;2023-09-30T08:07:24;6.27;;;5.03;;
71091;SDS011;58751;50.708;7.134;2023-09-30T08:09:50;6.80;;;5.30;;
71091;SDS011;58751;50.708;7.134;2023-09-30T08:12:16;7.23;;;4.70;;
71091;SDS011;58751;50.708;7.134;2023-09-30T08:14:41;4.57;;;4.17;;
71091;SDS011;58751;50.708;7.134;2023-09-30T08:17:07;6.13;;;4.80;;
71091;SDS011;58751;50.708;7.134;2023-09-30T08:19:32;8.10;;;5.00;;
71091;SDS011;58751;50.708;7.134;2023-09-30T08:21:58;6.07;;;5.47;;
71091;SDS011;58751;50.708;7.134;2023-09-30T08:24:23;5.57;;;5.00;;
71091;SDS011;58751;50.708;7.134;2023-09-30T08:26:50;6.23;;;4.90;;
71091;SDS011;58751;50.708;7.134;2023-09-30T08:29:15;6.00;;;5.40;;
71091;SDS011;58751;50.708;7.134;2023-09-30T08:31:40;7.47;;;5.53;;
71091;SDS011;58751;50.708;7.134;2023-09-30T08:34:06;6.43;;;5.37;;
71091;SDS011;58751;50.708;7.134;2023-09-30T08:36:31;9.87;;;5.33;;
71091;SDS011;58751;50.708;7.134;2023-09-30T08:38:57;7.07;;;6.37;;
71091;SDS011;58751;50.708;7.134;2023-09-30T08:41:24;5.53;;;5.00;;
71091;SDS011;58751;50.708;7.134;2023-09-30T08:43:57;8.37;;;6.50;;
71091;SDS011;58751;50.708;7.134;2023-09-30T08:46:24;9.37;;;5.70;;
71091;SDS011;58751;50.708;7.134;2023-09-30T08:48:50;6.67;;;5.70;;
71091;SDS011;58751;50.708;7.134;2023-09-30T08:51:16;6.60;;;5.80;;
71091;SDS011;58751;50.708;7.134;2023-09-30T08:53:41;7.43;;;6.20;;
71091;SDS011;58751;50.708;7.134;2023-09-30T08:56:07;6.47;;;5.83;;
71091;SDS011;58751;50.708;7.134;2023-09-30T08:58:33;6.10;;;5.40;;
71091;SDS011;58751;50.708;7.134;2023-09-30T09:01:02;7.83;;;7.00;;
71091;SDS011;58751;50.708;7.134;2023-09-30T09:03:28;12.47;;;7.03;;
71091;SDS011;58751;50.708;7.134;2023-09-30T09:05:54;7.40;;;6.43;;
71091;SDS011;58751;50.708;7.134;2023-09-30T09:08:19;10.37;;;9.37;;
71091;SDS011;58751;50.708;7.134;2023-09-30T09:10:53;8.10;;;6.90;;
71091;SDS011;58751;50.708;7.134;2023-09-30T09:13:19;8.17;;;6.77;;
71091;SDS011;58751;50.708;7.134;2023-09-30T09:15:45;9.77;;;7.77;;
71091;SDS011;58751;50.708;7.134;2023-09-30T09:18:12;8.40;;;6.67;;
71091;SDS011;58751;50.708;7.134;2023-09-30T09:20:37;7.90;;;7.20;;
71091;SDS011;58751;50.708;7.134;2023-09-30T09:23:02;10.70;;;6.90;;
71091;SDS011;58751;50.708;7.134;2023-09-30T09:25:33;9.53;;;7.10;;
71091;SDS011;58751;50.708;7.134;2023-09-30T09:28:03;9.67;;;6.90;;
71091;SDS011;58751;50.708;7.134;2023-09-30T09:30:28;8.87;;;6.83;;
71091;SDS011;58751;50.708;7.134;2023-09-30T09:32:55;8.10;;;6.53;;
71091;SDS011;58751;50.708;7.134;2023-09-30T09:35:25;8.00;;;6.10;;
71091;SDS011;58751;50.708;7.134;2023-09-30T09:37:54;8.27;;;6.70;;
71091;SDS011;58751;50.708;7.134;2023-09-30T09:40:22;5.40;;;4.50;;
71091;SDS011;58751;50.708;7.134;2023-09-30T09:42:48;6.80;;;5.27;;
71091;SDS011;58751;50.708;7.134;2023-09-30T09:45:15;4.10;;;3.60;;
71091;SDS011;58751;50.708;7.134;2023-09-30T09:47:40;4.90;;;3.83;;
71091;SDS011;58751;50.708;7.134;2023-09-30T09:50:06;5.27;;;4.70;;
71091;SDS011;58751;50.708;7.134;2023-09-30T09:52:33;4.10;;;3.70;;
71091;SDS011;58751;50.708;7.134;2023-09-30T09:54:59;4.13;;;3.50;;
71091;SDS011;58751;50.708;7.134;2023-09-30T09:57:25;3.77;;;3.13;;
71091;SDS011;58751;50.708;7.134;2023-09-30T09:59:52;4.13;;;3.80;;
71091;SDS011;58751;50.708;7.134;2023-09-30T10:02:19;3.97;;;3.57;;
71091;SDS011;58751;50.708;7.134;2023-09-30T10:04:44;4.37;;;3.27;;
71091;SDS011;58751;50.708;7.134;2023-09-30T10:07:10;3.70;;;3.40;;
71091;SDS011;58751;50.708;7.134;2023-09-30T10:09:43;4.07;;;3.77;;
71091;SDS011;58751;50.708;7.134;2023-09-30T10:12:10;6.50;;;3.53;;
71091;SDS011;58751;50.708;7.134;2023-09-30T10:14:35;4.23;;;3.13;;
71091;SDS011;58751;50.708;7.134;2023-09-30T10:17:01;3.27;;;2.87;;
71091;SDS011;58751;50.708;7.134;2023-09-30T10:19:26;4.87;;;3.50;;
71091;SDS011;58751;50.708;7.134;2023-09-30T10:24:47;3.73;;;3.03;;
71091;SDS011;58751;50.708;7.134;2023-09-30T10:27:28;3.30;;;2.80;;
71091;SDS011;58751;50.708;7.134;2023-09-30T10:29:56;5.50;;;4.93;;
71091;SDS011;58751;50.708;7.134;2023-09-30T10:32:21;3.33;;;3.03;;
71091;SDS011;58751;50.708;7.134;2023-09-30T10:34:47;5.80;;;5.20;;
71091;SDS011;58751;50.708;7.134;2023-09-30T10:37:22;4.00;;;3.70;;
71091;SDS011;58751;50.708;7.134;2023-09-30T10:39:56;5.80;;;3.60;;
71091;SDS011;58751;50.708;7.134;2023-09-30T10:50:58;3.30;;;3.00;;
71091;SDS011;58751;50.708;7.134;2023-09-30T10:53:24;3.97;;;3.67;;
71091;SDS011;58751;50.708;7.134;2023-09-30T10:55:53;2.93;;;2.73;;
71091;SDS011;58751;50.708;7.134;2023-09-30T10:58:19;4.07;;;2.67;;
71091;SDS011;58751;50.708;7.134;2023-09-30T11:00:51;3.90;;;3.20;;
71091;SDS011;58751;50.708;7.134;2023-09-30T11:03:19;3.33;;;2.73;;
71091;SDS011;58751;50.708;7.134;2023-09-30T11:05:46;3.43;;;3.00;;
71091;SDS011;58751;50.708;7.134;2023-09-30T11:08:12;5.80;;;3.77;;
71091;SDS011;58751;50.708;7.134;2023-09-30T11:10:46;3.70;;;2.93;;
71091;SDS011;58751;50.708;7.134;2023-09-30T11:13:13;2.93;;;2.70;;
71091;SDS011;58751;50.708;7.134;2023-09-30T11:15:39;4.30;;;2.80;;
71091;SDS011;58751;50.708;7.134;2023-09-30T11:20:47;4.57;;;3.03;;
71091;SDS011;58751;50.708;7.134;2023-09-30T11:23:13;5.80;;;3.50;;
71091;SDS011;58751;50.708;7.134;2023-09-30T11:25:38;4.50;;;3.37;;
71091;SDS011;58751;50.708;7.134;2023-09-30T11:28:15;4.83;;;3.57;;
71091;SDS011;58751;50.708;7.134;2023-09-30T11:30:57;3.63;;;3.10;;
71091;SDS011;58751;50.708;7.134;2023-09-30T11:33:24;2.70;;;2.50;;
71091;SDS011;58751;50.708;7.134;2023-09-30T11:36:00;4.60;;;2.50;;
71091;SDS011;58751;50.708;7.134;2023-09-30T11:38:26;3.70;;;3.30;;
71091;SDS011;58751;50.708;7.134;2023-09-30T11:40:59;2.80;;;2.50;;
71091;SDS011;58751;50.708;7.134;2023-09-30T11:43:26;5.67;;;3.00;;
71091;SDS011;58751;50.708;7.134;2023-09-30T11:45:52;4.27;;;3.40;;
71091;SDS011;58751;50.708;7.134;2023-09-30T11:48:17;2.50;;;2.30;;
71091;SDS011;58751;50.708;7.134;2023-09-30T11:50:47;4.13;;;3.60;;
71091;SDS011;58751;50.708;7.134;2023-09-30T11:53:15;12.80;;;11.70;;
71091;SDS011;58751;50.708;7.134;2023-09-30T11:55:41;6.00;;;5.50;;
71091;SDS011;58751;50.708;7.134;2023-09-30T11:58:06;3.60;;;3.30;;
71091;SDS011;58751;50.708;7.134;2023-09-30T12:00:33;3.63;;;2.80;;
71091;SDS011;58751;50.708;7.134;2023-09-30T12:02:59;3.40;;;2.53;;
71091;SDS011;58751;50.708;7.134;2023-09-30T12:05:24;3.83;;;2.80;;
71091;SDS011;58751;50.708;7.134;2023-09-30T12:07:49;5.33;;;3.17;;
71091;SDS011;58751;50.708;7.134;2023-09-30T12:10:15;4.43;;;2.50;;
71091;SDS011;58751;50.708;7.134;2023-09-30T12:12:40;4.40;;;2.70;;
71091;SDS011;58751;50.708;7.134;2023-09-30T12:15:06;6.10;;;3.00;;
71091;SDS011;58751;50.708;7.134;2023-09-30T12:17:33;3.93;;;2.50;;
71091;SDS011;58751;50.708;7.134;2023-09-30T12:19:59;3.80;;;2.60;;
71091;SDS011;58751;50.708;7.134;2023-09-30T12:22:24;3.70;;;2.40;;
71091;SDS011;58751;50.708;7.134;2023-09-30T12:24:50;3.90;;;2.50;;
71091;SDS011;58751;50.708;7.134;2023-09-30T12:27:15;4.43;;;3.20;;
71091;SDS011;58751;50.708;7.134;2023-09-30T12:29:40;2.70;;;2.27;;
71091;SDS011;58751;50.708;7.134;2023-09-30T12:32:06;4.30;;;3.27;;
71091;SDS011;58751;50.708;7.134;2023-09-30T12:34:32;3.70;;;2.50;;
71091;SDS011;58751;50.708;7.134;2023-09-30T12:36:58;3.50;;;3.20;;
71091;SDS011;58751;50.708;7.134;2023-09-30T12:39:23;4.10;;;3.33;;
71091;SDS011;58751;50.708;7.134;2023-09-30T12:41:48;4.07;;;3.10;;
71091;SDS011;58751;50.708;7.134;2023-09-30T12:44:14;4.33;;;3.27;;
71091;SDS011;58751;50.708;7.134;2023-09-30T12:46:39;3.47;;;2.87;;
71091;SDS011;58751;50.708;7.134;2023-09-30T12:49:05;2.97;;;2.30;;
71091;SDS011;58751;50.708;7.134;2023-09-30T12:51:32;3.70;;;2.73;;
71091;SDS011;58751;50.708;7.134;2023-09-30T12:53:58;5.20;;;2.90;;
71091;SDS011;58751;50.708;7.134;2023-09-30T12:56:23;5.13;;;3.10;;
71091;SDS011;58751;50.708;7.134;2023-09-30T12:58:48;3.20;;;2.47;;
71091;SDS011;58751;50.708;7.134;2023-09-30T13:01:14;4.73;;;3.20;;
71091;SDS011;58751;50.708;7.134;2023-09-30T13:03:39;3.47;;;2.43;;
71091;SDS011;58751;50.708;7.134;2023-09-30T13:06:05;3.87;;;3.00;;
71091;SDS011;58751;50.708;7.134;2023-09-30T13:08:31;3.47;;;3.03;;
71091;SDS011;58751;50.708;7.134;2023-09-30T13:10:57;2.97;;;2.50;;
71091;SDS011;58751;50.708;7.134;2023-09-30T13:13:22;3.77;;;3.20;;
71091;SDS011;58751;50.708;7.134;2023-09-30T13:15:48;3.17;;;2.70;;
71091;SDS011;58751;50.708;7.134;2023-09-30T13:18:13;3.80;;;2.80;;
71091;SDS011;58751;50.708;7.134;2023-09-30T13:20:38;4.13;;;3.10;;
71091;SDS011;58751;50.708;7.134;2023-09-30T13:23:04;5.90;;;3.00;;
71091;SDS011;58751;50.708;7.134;2023-09-30T13:25:31;4.23;;;2.77;;
71091;SDS011;58751;50.708;7.134;2023-09-30T13:27:56;4.27;;;2.60;;
71091;SDS011;58751;50.708;7.134;2023-09-30T13:30:21;3.57;;;2.67;;
71091;SDS011;58751;50.708;7.134;2023-09-30T13:32:47;6.10;;;3.33;;
71091;SDS011;58751;50.708;7.134;2023-09-30T13:35:12;3.43;;;2.47;;
71091;SDS011;58751;50.708;7.134;2023-09-30T13:37:38;3.33;;;3.03;;
71091;SDS011;58751;50.708;7.134;2023-09-30T13:40:03;5.13;;;2.67;;
71091;SDS011;58751;50.708;7.134;2023-09-30T13:42:31;3.90;;;3.30;;
71091;SDS011;58751;50.708;7.134;2023-09-30T13:44:57;4.03;;;3.63;;
71091;SDS011;58751;50.708;7.134;2023-09-30T13:47:22;2.83;;;2.50;;
71091;SDS011;58751;50.708;7.134;2023-09-30T13:49:48;4.00;;;3.13;;
71091;SDS011;58751;50.708;7.134;2023-09-30T13:52:13;4.50;;;3.30;;
71091;SDS011;58751;50.708;7.134;2023-09-30T13:54:38;3.17;;;2.50;;
71091;SDS011;58751;50.708;7.134;2023-09-30T13:57:04;3.47;;;2.60;;
71091;SDS011;58751;50.708;7.134;2023-09-30T13:59:33;3.97;;;3.57;;
71091;SDS011;58751;50.708;7.134;2023-09-30T14:01:58;2.90;;;2.60;;
71091;SDS011;58751;50.708;7.134;2023-09-30T14:04:24;3.30;;;2.03;;
71091;SDS011;58751;50.708;7.134;2023-09-30T14:06:49;3.10;;;2.80;;
71091;SDS011;58751;50.708;7.134;2023-09-30T14:09:15;3.37;;;3.07;;
71091;SDS011;58751;50.708;7.134;2023-09-30T14:11:40;4.70;;;2.87;;
71091;SDS011;58751;50.708;7.134;2023-09-30T14:14:05;3.60;;;3.20;;
71091;SDS011;58751;50.708;7.134;2023-09-30T14:16:32;3.60;;;3.30;;
71091;SDS011;58751;50.708;7.134;2023-09-30T14:18:58;3.80;;;2.33;;
71091;SDS011;58751;50.708;7.134;2023-09-30T14:21:23;6.40;;;3.30;;
71091;SDS011;58751;50.708;7.134;2023-09-30T14:23:49;4.33;;;3.23;;
71091;SDS011;58751;50.708;7.134;2023-09-30T14:26:14;4.20;;;3.20;;
71091;SDS011;58751;50.708;7.134;2023-09-30T14:28:39;4.03;;;2.90;;
71091;SDS011;58751;50.708;7.134;2023-09-30T14:31:05;5.80;;;3.00;;
71091;SDS011;58751;50.708;7.134;2023-09-30T14:33:32;3.27;;;2.97;;
71091;SDS011;58751;50.708;7.134;2023-09-30T14:35:57;5.17;;;3.10;;
71091;SDS011;58751;50.708;7.134;2023-09-30T14:38:22;5.50;;;2.80;;
71091;SDS011;58751;50.708;7.134;2023-09-30T14:40:48;3.53;;;2.70;;
71091;SDS011;58751;50.708;7.134;2023-09-30T14:43:13;2.70;;;2.50;;
71091;SDS011;58751;50.708;7.134;2023-09-30T14:45:39;3.40;;;2.50;;
71091;SDS011;58751;50.708;7.134;2023-09-30T14:48:04;3.60;;;3.07;;
71091;SDS011;58751;50.708;7.134;2023-09-30T14:50:32;5.70;;;3.13;;